Time;durP1;ratioP1;P1;durP2;ratioP2;P2;SDS_P1;SDS_P2;PMS_P1;PMS_P2;Temp;Humidity;BMP_temperature;BMP_pressure;BME280_temperature;BME280_humidity;BME280_pressure;Samples;Min_cycle;Max_cycle;Signal;HPM_P1;HPM_P2
2023/01/26 00:01:50;;;;;;;;;;;;;;;-144.99;100.00;52550.00;5096847;28;19924;-78
2023/01/26 00:04:17;;;;;;;;;;;;;;;-144.99;100.00;52572.44;5114300;28;19924;-77
2023/01/26 00:06:43;;;;;;;;;;;;;;;-144.99;100.00;52594.84;5115846;28;20021;-80
2023/01/26 00:09:12;;;;;;;;;;;;;;;-144.99;100.00;52590.78;5111945;28;19981;-77
2023/01/26 00:11:40;;;;;;;;;;;;;;;-144.99;100.00;52558.16;5091057;28;19978;-79
2023/01/26 00:14:06;;;;;;;;;;;;;;;-144.99;100.00;52554.09;5105683;22;19967;-68
2023/01/26 00:16:33;;;;;;;;;;;;;;;-144.99;100.00;52594.84;5091575;28;20210;-68
2023/01/26 00:18:59;;;;;;;;;;;;;;;-144.99;100.00;52560.19;5090866;28;19935;-68
2023/01/26 00:21:26;;;;;;;;;;;;;;;-144.99;100.00;52562.25;5085514;28;19924;-71
2023/01/26 00:23:53;;;;;;;;;;;;;;;-144.99;100.00;52568.34;5077660;28;19967;-71
2023/01/26 00:26:20;;;;;;;;;;;;;;;-144.99;100.00;52541.84;5097255;27;19912;-68
2023/01/26 00:28:48;;;;;;;;;;;;;;;-144.99;100.00;52594.84;5103747;28;19923;-70
2023/01/26 00:31:16;;;;;;;;;;;;;;;-144.99;100.00;52564.28;5091758;28;20298;-69
2023/01/26 00:33:43;;;;;;;;;;;;;;;-144.99;100.00;52607.09;5094198;28;20446;-70
2023/01/26 00:36:09;;;;;;;;;;;;;;;-144.99;100.00;52568.34;5096149;28;19928;-70
2023/01/26 00:38:36;;;;;;;;;;;;;;;-144.99;100.00;52525.56;5095752;28;19932;-70
2023/01/26 00:41:03;;;;;;;;;;;;;;;-144.99;100.00;52582.63;5095998;28;19928;-71
2023/01/26 00:43:29;;;;;;;;;;;;;;;-144.99;100.00;52566.31;5112837;28;19927;-72
2023/01/26 00:45:57;;;;;;;;;;;;;;;-144.99;100.00;52558.16;5098657;28;19925;-71
2023/01/26 00:48:23;;;;;;;;;;;;;;;-144.99;100.00;52623.38;5085358;28;20400;-71
2023/01/26 00:50:50;;;;;;;;;;;;;;;-144.99;100.00;52554.09;5085867;28;20381;-72
2023/01/26 00:53:17;;;;;;;;;;;;;;;-144.99;100.00;52578.53;5086981;28;19928;-71
2023/01/26 00:55:43;;;;;;;;;;;;;;;-144.99;100.00;52566.31;5084958;28;19924;-71
2023/01/26 00:58:10;;;;;;;;;;;;;;;-144.99;100.00;52558.16;5087508;28;19928;-71
2023/01/26 01:00:37;;;;;;;;;;;;;;;-144.99;100.00;52574.47;5083782;28;19928;-70
2023/01/26 01:03:06;;;;;;;;;;;;;;;-144.99;100.00;52550.00;5082675;28;19977;-73
2023/01/26 01:05:33;;;;;;;;;;;;;;;-144.99;100.00;52586.69;5085305;28;20304;-71
2023/01/26 01:08:00;;;;;;;;;;;;;;;-144.99;100.00;52586.69;5084027;28;19985;-69
2023/01/26 01:10:27;;;;;;;;;;;;;;;-144.99;100.00;52558.16;5083572;28;19924;-69
2023/01/26 01:12:53;;;;;;;;;;;;;;;-144.99;100.00;52603.00;5079788;28;20034;-69
2023/01/26 01:15:20;;;;;;;;;;;;;;;-144.99;100.00;52578.53;5082775;28;19978;-70
2023/01/26 01:17:47;;;;;;;;;;;;;;;-144.99;100.00;52594.84;5085728;28;20032;-69
2023/01/26 01:20:15;;;;;;;;;;;;;;;-144.99;100.00;52550.00;5083975;28;19932;-68
2023/01/26 01:22:41;;;;;;;;;;;;;;;-144.99;100.00;52578.53;5086039;28;20031;-69
2023/01/26 01:25:08;;;;;;;;;;;;;;;-144.99;100.00;52552.03;5082751;28;20376;-69
2023/01/26 01:27:35;;;;;;;;;;;;;;;-144.99;100.00;52611.16;5086522;28;19989;-69
2023/01/26 01:30:06;;;;;;;;;;;;;;;-144.99;100.00;52594.84;5085325;28;19978;-68
2023/01/26 01:32:34;;;;;;;;;;;;;;;-144.99;100.00;52598.94;5088295;28;19928;-69
2023/01/26 01:35:00;;;;;;;;;;;;;;;-144.99;100.00;52586.69;5087163;28;19951;-70
2023/01/26 01:37:30;;;;;;;;;;;;;;;-144.99;100.00;52615.25;5085774;28;20365;-69
2023/01/26 01:39:56;;;;;;;;;;;;;;;-144.99;100.00;52582.63;5093830;28;19928;-69
2023/01/26 01:42:23;;;;;;;;;;;;;;;-144.99;100.00;52574.47;5112070;28;19934;-70
2023/01/26 01:45:04;;;;;;;;;;;;;;;-144.99;100.00;52603.00;5114283;27;19950;-69
2023/01/26 01:47:31;;;;;;;;;;;;;;;-144.99;100.00;52586.69;5109243;28;19950;-70
2023/01/26 01:49:58;;;;;;;;;;;;;;;-144.99;100.00;52594.84;5088111;28;19924;-69
2023/01/26 01:52:26;;;;;;;;;;;;;;;-144.99;100.00;52574.47;5093196;28;20396;-70
2023/01/26 01:54:56;;;;;;;;;;;;;;;-144.99;100.00;52541.84;5091263;28;20012;-69
2023/01/26 01:57:26;;;;;;;;;;;;;;;-144.99;100.00;52550.00;5086989;28;20369;-69
2023/01/26 01:59:55;;;;;;;;;;;;;;;-144.99;100.00;52596.88;5093128;28;19924;-69
2023/01/26 02:02:21;;;;;;;;;;;;;;;-144.99;100.00;52594.84;5086880;28;19935;-70
2023/01/26 02:04:48;;;;;;;;;;;;;;;-144.99;100.00;52598.94;5087486;28;19924;-70
2023/01/26 02:07:15;;;;;;;;;;;;;;;-144.99;100.00;52574.47;5089894;28;19959;-70
2023/01/26 02:12:29;;;;;;;;;;;;;;;-144.99;100.00;52619.31;5088138;28;19939;-72
2023/01/26 02:14:56;;;;;;;;;;;;;;;-144.99;100.00;52541.84;5091262;28;19924;-72
2023/01/26 02:17:23;;;;;;;;;;;;;;;-144.99;100.00;52529.63;5092058;28;19932;-72
2023/01/26 02:19:56;;;;;;;;;;;;;;;-144.99;100.00;52582.63;5089063;28;19956;-71
2023/01/26 02:22:28;;;;;;;;;;;;;;;-144.99;100.00;52558.16;5103270;27;19942;-70
2023/01/26 02:24:56;;;;;;;;;;;;;;;-144.99;100.00;52537.78;5109001;27;19977;-73
2023/01/26 02:27:24;;;;;;;;;;;;;;;-144.99;100.00;52613.19;5103906;28;20307;-71
2023/01/26 02:29:51;;;;;;;;;;;;;;;-144.99;100.00;52545.94;5088405;28;19928;-72
2023/01/26 02:32:18;;;;;;;;;;;;;;;-144.99;100.00;52590.78;5101528;27;19924;-72
2023/01/26 02:34:44;;;;;;;;;;;;;;;-144.99;100.00;52554.09;5112526;28;19938;-71
2023/01/26 02:37:13;;;;;;;;;;;;;;;-144.99;100.00;52586.69;5106764;28;19924;-70
2023/01/26 02:39:44;;;;;;;;;;;;;;;-144.99;100.00;52603.00;5090295;28;19970;-71
2023/01/26 02:44:56;;;;;;;;;;;;;;;-144.99;100.00;52619.31;5090522;28;19931;-72
2023/01/26 02:47:23;;;;;;;;;;;;;;;-144.99;100.00;52566.31;5087055;28;19928;-72
2023/01/26 02:49:49;;;;;;;;;;;;;;;-144.99;100.00;52590.78;5084109;28;19928;-72
2023/01/26 02:52:16;;;;;;;;;;;;;;;-144.99;100.00;52578.53;5086418;28;19928;-72
2023/01/26 02:57:24;;;;;;;;;;;;;;;-144.99;100.00;52550.00;5084925;28;19935;-72
2023/01/26 02:59:51;;;;;;;;;;;;;;;-144.99;100.00;52574.47;5089531;28;19928;-72
2023/01/26 03:02:19;;;;;;;;;;;;;;;-144.99;100.00;52596.88;5085951;28;19928;-72
2023/01/26 03:04:45;;;;;;;;;;;;;;;-144.99;100.00;52562.25;5086119;28;19962;-72
2023/01/26 03:07:12;;;;;;;;;;;;;;;-144.99;100.00;52556.13;5083985;28;20013;-70
2023/01/26 03:09:38;;;;;;;;;;;;;;;-144.99;100.00;52590.78;5091469;28;19924;-71
2023/01/26 03:12:05;;;;;;;;;;;;;;;-144.99;100.00;52576.50;5083875;28;19925;-71
2023/01/26 03:14:32;;;;;;;;;;;;;;;-144.99;100.00;52533.69;5095366;28;19925;-70
2023/01/26 03:16:58;;;;;;;;;;;;;;;-144.99;100.00;52574.47;5090541;28;19932;-70
2023/01/26 03:27:40;;;;;;;;;;;;;;;-144.99;100.00;52550.00;5089888;28;19939;-71
2023/01/26 03:30:07;;;;;;;;;;;;;;;-144.99;100.00;52586.69;5088306;28;19928;-72
2023/01/26 03:32:34;;;;;;;;;;;;;;;-144.99;100.00;52590.78;5086647;28;20392;-72
2023/01/26 03:35:02;;;;;;;;;;;;;;;-144.99;100.00;52556.13;5082538;28;20385;-72
2023/01/26 03:37:33;;;;;;;;;;;;;;;-144.99;100.00;52580.59;5090166;28;20270;-72
2023/01/26 03:56:31;;;;;;;;;;;;;;;-144.99;100.00;52566.31;5114408;27;19942;-73
2023/01/26 03:59:07;;;;;;;;;;;;;;;-144.99;100.00;52578.53;5105660;28;19928;-72
2023/01/26 04:01:34;;;;;;;;;;;;;;;-144.99;100.00;52558.16;5088535;28;20425;-72
2023/01/26 04:09:32;;;;;;;;;;;;;;;-144.99;100.00;52558.16;5087341;28;20017;-71
2023/01/26 04:11:59;;;;;;;;;;;;;;;-144.99;100.00;52588.75;5081551;28;19928;-72
2023/01/26 04:22:42;;;;;;;;;;;;;;;-144.99;100.00;52586.69;5100199;28;19931;-70
2023/01/26 04:25:09;;;;;;;;;;;;;;;-144.99;100.00;52529.63;5108285;28;19959;-71
2023/01/26 04:27:36;;;;;;;;;;;;;;;-144.99;100.00;52552.03;5102568;28;19989;-69
2023/01/26 04:30:03;;;;;;;;;;;;;;;-144.99;100.00;52566.31;5105703;28;19924;-69
2023/01/26 04:32:30;;;;;;;;;;;;;;;-144.99;100.00;52594.84;5108042;28;19928;-70
2023/01/26 04:34:56;;;;;;;;;;;;;;;-144.99;100.00;52574.47;5105214;28;19925;-69
2023/01/26 04:37:23;;;;;;;;;;;;;;;-144.99;100.00;52578.53;5099409;28;19928;-69
2023/01/26 04:39:51;;;;;;;;;;;;;;;-144.99;100.00;52596.88;5105187;28;19924;-70
2023/01/26 04:42:17;;;;;;;;;;;;;;;-144.99;100.00;52566.31;5097936;28;19925;-70
2023/01/26 04:44:44;;;;;;;;;;;;;;;-144.99;100.00;52570.38;5095499;28;19951;-70
2023/01/26 04:47:10;;;;;;;;;;;;;;;-144.99;100.00;52533.69;5102902;28;19951;-70
2023/01/26 04:49:37;;;;;;;;;;;;;;;-144.99;100.00;52570.38;5106168;28;19954;-70
2023/01/26 04:52:03;;;;;;;;;;;;;;;-144.99;100.00;52562.25;5084741;28;20344;-69
2023/01/26 04:54:30;;;;;;;;;;;;;;;-144.99;100.00;52545.94;5102293;28;19932;-70
2023/01/26 04:56:58;;;;;;;;;;;;;;;-144.99;100.00;52586.69;5089024;28;19982;-70
2023/01/26 04:59:24;;;;;;;;;;;;;;;-144.99;100.00;52594.84;5081234;28;19932;-71
2023/01/26 05:01:51;;;;;;;;;;;;;;;-144.99;100.00;52537.78;5084731;28;19927;-71
2023/01/26 05:04:17;;;;;;;;;;;;;;;-144.99;100.00;52603.00;5079077;28;19924;-71
2023/01/26 05:06:44;;;;;;;;;;;;;;;-144.99;100.00;52533.69;5082885;28;19928;-73
2023/01/26 05:09:11;;;;;;;;;;;;;;;-144.99;100.00;52541.84;5081630;28;20377;-72
2023/01/26 05:11:37;;;;;;;;;;;;;;;-144.99;100.00;52615.25;5079755;28;19924;-72
2023/01/26 05:14:05;;;;;;;;;;;;;;;-144.99;100.00;52554.09;5088471;28;19989;-73
2023/01/26 05:16:32;;;;;;;;;;;;;;;-144.99;100.00;52570.38;5085732;28;19931;-72
2023/01/26 05:18:58;;;;;;;;;;;;;;;-144.99;100.00;52568.34;5083441;28;20369;-72
2023/01/26 05:21:26;;;;;;;;;;;;;;;-144.99;100.00;52545.94;5083912;28;19928;-71
2023/01/26 05:23:52;;;;;;;;;;;;;;;-144.99;100.00;52574.47;5076766;28;19928;-72
2023/01/26 05:26:19;;;;;;;;;;;;;;;-144.99;100.00;52570.38;5084540;28;19959;-69
2023/01/26 05:28:46;;;;;;;;;;;;;;;-144.99;100.00;52607.09;5082441;28;19972;-72
2023/01/26 05:31:14;;;;;;;;;;;;;;;-144.99;100.00;52603.00;5091110;28;19963;-71
2023/01/26 05:33:40;;;;;;;;;;;;;;;-144.99;100.00;52554.09;5090875;28;20339;-71
2023/01/26 05:36:07;;;;;;;;;;;;;;;-144.99;100.00;52545.94;5093294;28;19947;-71
2023/01/26 05:38:34;;;;;;;;;;;;;;;-144.99;100.00;52607.09;5089388;28;19927;-71
2023/01/26 05:41:01;;;;;;;;;;;;;;;-144.99;100.00;52590.78;5091707;28;20365;-72
2023/01/26 05:43:27;;;;;;;;;;;;;;;-144.99;100.00;52545.94;5084653;28;19977;-71
2023/01/26 05:45:54;;;;;;;;;;;;;;;-144.99;100.00;52578.53;5085641;28;19932;-71
2023/01/26 05:48:22;;;;;;;;;;;;;;;-144.99;100.00;52554.09;5097047;28;19928;-70
2023/01/26 05:50:49;;;;;;;;;;;;;;;-144.99;100.00;52574.47;5085552;28;20321;-70
2023/01/26 05:53:15;;;;;;;;;;;;;;;-144.99;100.00;52556.13;5090220;28;19928;-70
2023/01/26 05:55:43;;;;;;;;;;;;;;;-144.99;100.00;52594.84;5081521;28;19928;-71
2023/01/26 05:58:09;;;;;;;;;;;;;;;-144.99;100.00;52541.84;5083416;28;19993;-72
2023/01/26 06:00:36;;;;;;;;;;;;;;;-144.99;100.00;52562.25;5082758;28;20308;-72
2023/01/26 06:03:02;;;;;;;;;;;;;;;-144.99;100.00;52554.09;5092437;28;19924;-71
2023/01/26 06:05:30;;;;;;;;;;;;;;;-144.99;100.00;52558.16;5109471;28;19951;-73
2023/01/26 06:07:57;;;;;;;;;;;;;;;-144.99;100.00;52566.31;5106406;28;19946;-75
2023/01/26 06:10:23;;;;;;;;;;;;;;;-144.99;100.00;52529.63;5099457;28;19909;-74
2023/01/26 06:12:50;;;;;;;;;;;;;;;-144.99;100.00;52554.09;5105088;28;19932;-76
2023/01/26 06:15:16;;;;;;;;;;;;;;;-144.99;100.00;52562.25;5114580;28;20058;-76
2023/01/26 06:17:43;;;;;;;;;;;;;;;-144.99;100.00;52558.16;5104620;28;19925;-76
2023/01/26 06:20:11;;;;;;;;;;;;;;;-144.99;100.00;52590.78;5110962;28;19928;-75
2023/01/26 06:22:39;;;;;;;;;;;;;;;-144.99;100.00;52521.47;5107973;22;19933;-78
2023/01/26 06:25:05;;;;;;;;;;;;;;;-144.99;100.00;52554.09;5030587;28;20175;-78
2023/01/26 06:27:34;;;;;;;;;;;;;;;-144.99;100.00;52541.84;4420967;28;10000749;-78
2023/01/26 06:30:01;;;;;;;;;;;;;;;-144.99;100.00;52570.38;5034087;28;19929;-78
2023/01/26 06:32:28;;;;;;;;;;;;;;;-144.99;100.00;52580.59;5034247;28;19952;-77
2023/01/26 06:34:54;;;;;;;;;;;;;;;-144.99;100.00;52582.63;5035615;28;19929;-78
2023/01/26 06:37:21;;;;;;;;;;;;;;;-144.99;100.00;52574.47;5036678;28;20036;-79
2023/01/26 06:39:48;;;;;;;;;;;;;;;-144.99;100.00;52541.84;5039493;28;20088;-78
2023/01/26 06:42:15;;;;;;;;;;;;;;;-144.99;100.00;52558.16;5045561;28;19940;-82
2023/01/26 06:44:41;;;;;;;;;;;;;;;-144.99;100.00;52566.31;5062525;28;19936;-84
2023/01/26 06:47:08;;;;;;;;;;;;;;;-144.99;100.00;52554.09;5033650;28;20388;-77
2023/01/26 06:49:34;;;;;;;;;;;;;;;-144.99;100.00;52570.38;5032744;28;20432;-78
2023/01/26 06:52:04;;;;;;;;;;;;;;;-144.99;100.00;52558.16;5024813;28;19933;-80
2023/01/26 06:54:30;;;;;;;;;;;;;;;-144.99;100.00;52531.66;5042445;28;19964;-78
2023/01/26 06:56:58;;;;;;;;;;;;;;;-144.99;100.00;52582.63;5032913;28;19972;-77
2023/01/26 06:59:24;;;;;;;;;;;;;;;-144.99;100.00;52550.00;5029843;28;19983;-78
2023/01/26 07:01:51;;;;;;;;;;;;;;;-144.99;100.00;52550.00;5035061;28;19925;-79
2023/01/26 07:04:17;;;;;;;;;;;;;;;-144.99;100.00;52554.09;5033472;28;20712;-77
2023/01/26 07:06:44;;;;;;;;;;;;;;;-144.99;100.00;52586.69;5030487;28;19991;-77
2023/01/26 07:09:11;;;;;;;;;;;;;;;-144.99;100.00;52594.84;5032647;28;20066;-76
2023/01/26 07:11:37;;;;;;;;;;;;;;;-144.99;100.00;52576.50;5030038;28;19972;-78
2023/01/26 07:14:05;;;;;;;;;;;;;;;-144.99;100.00;52552.03;5033812;28;19991;-77
2023/01/26 07:16:32;;;;;;;;;;;;;;;-144.99;100.00;52529.63;5041623;28;20029;-77
2023/01/26 07:18:58;;;;;;;;;;;;;;;-144.99;100.00;52570.38;5044100;28;19933;-76
2023/01/26 07:21:25;;;;;;;;;;;;;;;-144.99;100.00;52574.47;5057368;28;20005;-75
2023/01/26 07:23:52;;;;;;;;;;;;;;;-144.99;100.00;52558.16;5037501;28;20307;-79
2023/01/26 07:26:18;;;;;;;;;;;;;;;-144.99;100.00;52562.25;5037068;28;20301;-77
2023/01/26 07:28:45;;;;;;;;;;;;;;;-144.99;100.00;52541.84;5033214;28;19973;-76
2023/01/26 07:31:13;;;;;;;;;;;;;;;-144.99;100.00;52572.44;5030491;28;20418;-77
2023/01/26 07:33:39;;;;;;;;;;;;;;;-144.99;100.00;52566.31;5033028;28;19968;-76
2023/01/26 07:36:06;;;;;;;;;;;;;;;-144.99;100.00;52517.41;5027938;28;19967;-77
2023/01/26 07:38:33;;;;;;;;;;;;;;;-144.99;100.00;52594.84;5028638;28;19972;-77
2023/01/26 07:41:04;;;;;;;;;;;;;;;-144.99;100.00;52574.47;5036729;28;19952;-76
2023/01/26 07:43:32;;;;;;;;;;;;;;;-144.99;100.00;52568.34;5031147;28;20366;-77
2023/01/26 07:45:58;;;;;;;;;;;;;;;-144.99;100.00;52554.09;5031815;28;19968;-82
2023/01/26 07:48:28;;;;;;;;;;;;;;;-144.99;100.00;52554.09;5041330;28;19929;-77
2023/01/26 07:50:57;;;;;;;;;;;;;;;-144.99;100.00;52550.00;5035052;28;20381;-77
2023/01/26 07:53:26;;;;;;;;;;;;;;;-144.99;100.00;52578.53;5030197;28;19925;-78
2023/01/26 07:55:52;;;;;;;;;;;;;;;-144.99;100.00;52558.16;5034566;28;19974;-79
2023/01/26 07:58:19;;;;;;;;;;;;;;;-144.99;100.00;52588.75;5051172;28;19917;-77
2023/01/26 08:00:46;;;;;;;;;;;;;;;-144.99;100.00;52539.81;5042410;28;19936;-77
2023/01/26 08:03:13;;;;;;;;;;;;;;;-144.99;100.00;52554.09;5037725;28;19925;-77
2023/01/26 08:05:42;;;;;;;;;;;;;;;-144.99;100.00;52570.38;5038625;28;19967;-78
2023/01/26 08:08:08;;;;;;;;;;;;;;;-144.99;100.00;52586.69;5026963;28;20501;-75
2023/01/26 08:10:35;;;;;;;;;;;;;;;-144.99;100.00;52558.16;5028361;28;19925;-77
2023/01/26 08:13:01;;;;;;;;;;;;;;;-144.99;100.00;52566.31;5032719;28;19984;-79
2023/01/26 08:15:28;;;;;;;;;;;;;;;-144.99;100.00;52578.53;5033892;28;19933;-76
2023/01/26 08:17:54;;;;;;;;;;;;;;;-144.99;100.00;52554.09;5033193;28;20355;-77
2023/01/26 08:20:21;;;;;;;;;;;;;;;-144.99;100.00;52568.34;5028860;28;19960;-76
2023/01/26 08:22:49;;;;;;;;;;;;;;;-144.99;100.00;52566.31;5029154;28;19979;-79
2023/01/26 08:25:15;;;;;;;;;;;;;;;-144.99;100.00;52533.69;5029063;28;19925;-74
2023/01/26 08:27:42;;;;;;;;;;;;;;;-144.99;100.00;52574.47;5024961;28;20020;-77
2023/01/26 08:30:09;;;;;;;;;;;;;;;-144.99;100.00;52556.13;5034758;28;20016;-76
2023/01/26 08:32:35;;;;;;;;;;;;;;;-144.99;100.00;52558.16;5029185;28;20033;-76
2023/01/26 08:35:02;;;;;;;;;;;;;;;-144.99;100.00;52572.44;5031504;28;19968;-75
2023/01/26 08:37:28;;;;;;;;;;;;;;;-144.99;100.00;52560.19;5034851;28;19969;-76
2023/01/26 08:39:56;;;;;;;;;;;;;;;-144.99;100.00;52531.66;5027633;28;20018;-75
2023/01/26 08:42:24;;;;;;;;;;;;;;;-144.99;100.00;52558.16;5030348;28;20060;-77
2023/01/26 08:44:51;;;;;;;;;;;;;;;-144.99;100.00;52594.84;5024977;28;19936;-76
2023/01/26 08:47:17;;;;;;;;;;;;;;;-144.99;100.00;52533.69;5029956;28;20008;-78
2023/01/26 08:49:44;;;;;;;;;;;;;;;-144.99;100.00;52499.06;5032490;28;20361;-78
2023/01/26 08:52:10;;;;;;;;;;;;;;;-144.99;100.00;52550.00;5028954;28;19937;-74
2023/01/26 08:54:37;;;;;;;;;;;;;;;-144.99;100.00;52537.78;5031930;28;19925;-75
2023/01/26 08:57:05;;;;;;;;;;;;;;;-144.99;100.00;52592.81;5032531;28;19929;-74
2023/01/26 08:59:31;;;;;;;;;;;;;;;-144.99;100.00;52574.47;5025207;28;19936;-75
2023/01/26 09:01:58;;;;;;;;;;;;;;;-144.99;100.00;52539.81;5025691;28;19972;-75
2023/01/26 09:04:26;;;;;;;;;;;;;;;-144.99;100.00;52537.78;5027833;28;19979;-75
2023/01/26 09:06:52;;;;;;;;;;;;;;;-144.99;100.00;52547.97;5024430;28;19940;-73
2023/01/26 09:09:19;;;;;;;;;;;;;;;-144.99;100.00;52537.78;5056167;28;19951;-80
2023/01/26 09:11:45;;;;;;;;;;;;;;;-144.99;100.00;52537.78;5039525;28;19929;-76
2023/01/26 09:14:13;;;;;;;;;;;;;;;-144.99;100.00;52521.47;5028313;28;20021;-75
2023/01/26 09:16:39;;;;;;;;;;;;;;;-144.99;100.00;52570.38;5032319;28;19932;-76
2023/01/26 09:19:06;;;;;;;;;;;;;;;-144.99;100.00;52517.41;5026662;28;19990;-76
2023/01/26 09:21:32;;;;;;;;;;;;;;;-144.99;100.00;52539.81;5013407;28;20016;-75
2023/01/26 09:23:59;;;;;;;;;;;;;;;-144.99;100.00;52558.16;5033283;28;20053;-77
2023/01/26 09:26:25;;;;;;;;;;;;;;;-144.99;100.00;52570.38;5030532;28;20564;-76
2023/01/26 09:28:52;;;;;;;;;;;;;;;-144.99;100.00;52525.56;5025511;28;19972;-78
2023/01/26 09:31:20;;;;;;;;;;;;;;;-144.99;100.00;52521.47;5024977;28;19948;-77
2023/01/26 09:33:48;;;;;;;;;;;;;;;-144.99;100.00;52574.47;5026353;28;19933;-77
2023/01/26 09:36:14;;;;;;;;;;;;;;;-144.99;100.00;52574.47;5030206;28;20082;-79
2023/01/26 09:38:41;;;;;;;;;;;;;;;-144.99;100.00;52558.16;5036698;28;19975;-75
2023/01/26 09:41:17;;;;;;;;;;;;;;;-144.99;100.00;52527.59;5027996;28;20087;-75
2023/01/26 09:43:45;;;;;;;;;;;;;;;-144.99;100.00;52554.09;5028895;28;20012;-78
2023/01/26 09:46:29;;;;;;;;;;;;;;;-144.99;100.00;52590.78;5051010;28;19925;-73
2023/01/26 09:49:04;;;;;;;;;;;;;;;-144.99;100.00;52582.63;5019723;28;20067;-76
2023/01/26 09:51:33;;;;;;;;;;;;;;;-144.99;100.00;52529.63;5029081;28;20421;-75
2023/01/26 09:54:02;;;;;;;;;;;;;;;-144.99;100.00;52541.84;5035251;28;19980;-75
2023/01/26 09:56:32;;;;;;;;;;;;;;;-144.99;100.00;52570.38;5030697;28;20019;-75
2023/01/26 09:59:01;;;;;;;;;;;;;;;-144.99;100.00;52515.34;5030959;28;19929;-73
2023/01/26 10:01:35;;;;;;;;;;;;;;;-144.99;100.00;52590.78;5028639;28;20423;-78
2023/01/26 10:04:05;;;;;;;;;;;;;;;-144.99;100.00;52570.38;5036480;28;19967;-76
2023/01/26 10:06:32;;;;;;;;;;;;;;;-144.99;100.00;52570.38;5029412;28;19940;-76
2023/01/26 10:09:00;;;;;;;;;;;;;;;-144.99;100.00;52582.63;5037544;28;19960;-74
2023/01/26 10:11:30;;;;;;;;;;;;;;;-144.99;100.00;52566.31;5036067;28;20497;-74
2023/01/26 10:14:00;;;;;;;;;;;;;;;-144.99;100.00;52562.25;5031228;28;19936;-75
2023/01/26 10:16:27;;;;;;;;;;;;;;;-144.99;100.00;52513.31;5030944;28;20018;-77
2023/01/26 10:18:55;;;;;;;;;;;;;;;-144.99;100.00;52558.16;5026139;28;20482;-77
2023/01/26 10:21:26;;;;;;;;;;;;;;;-144.99;100.00;52572.44;5048987;28;19961;-75
2023/01/26 10:23:52;;;;;;;;;;;;;;;-144.99;100.00;52562.25;5030201;28;19963;-74
2023/01/26 10:26:20;;;;;;;;;;;;;;;-144.99;100.00;52554.09;5028158;28;20363;-76
2023/01/26 10:28:48;;;;;;;;;;;;;;;-144.99;100.00;52588.75;5028902;28;20024;-76
2023/01/26 10:31:15;;;;;;;;;;;;;;;-144.99;100.00;52554.09;5030083;28;19925;-75
2023/01/26 10:33:45;;;;;;;;;;;;;;;-144.99;100.00;52527.59;5029184;28;19925;-74
2023/01/26 10:36:12;;;;;;;;;;;;;;;-144.99;100.00;52503.13;5028538;28;19979;-75
2023/01/26 10:38:41;;;;;;;;;;;;;;;-144.99;100.00;52513.31;5020329;28;20369;-74
2023/01/26 10:41:21;;;;;;;;;;;;;;;-144.99;100.00;52541.84;5030979;28;20307;-76
2023/01/26 10:43:51;;;;;;;;;;;;;;;-144.99;100.00;52578.53;5030279;28;20463;-75
2023/01/26 10:46:23;;;;;;;;;;;;;;;-144.99;100.00;52562.25;5031011;28;19964;-76
2023/01/26 10:48:51;;;;;;;;;;;;;;;-144.99;100.00;52525.56;5029455;28;20015;-74
2023/01/26 10:51:22;;;;;;;;;;;;;;;-144.99;100.00;52556.13;5027394;28;19968;-77
2023/01/26 10:53:50;;;;;;;;;;;;;;;-144.99;100.00;52550.00;5033800;28;20022;-75
2023/01/26 10:56:17;;;;;;;;;;;;;;;-144.99;100.00;52527.59;5038564;28;20052;-75
2023/01/26 10:58:46;;;;;;;;;;;;;;;-144.99;100.00;52590.78;5029509;28;20396;-75
2023/01/26 11:01:17;;;;;;;;;;;;;;;-144.99;100.00;52582.63;5035302;28;19982;-75
2023/01/26 11:03:58;;;;;;;;;;;;;;;-144.99;100.00;52570.38;5030005;28;19929;-75
2023/01/26 11:06:28;;;;;;;;;;;;;;;-144.99;100.00;52570.38;5034573;28;19971;-74
2023/01/26 11:09:07;;;;;;;;;;;;;;;-144.99;100.00;52517.41;5028949;28;19961;-73
2023/01/26 11:11:34;;;;;;;;;;;;;;;-144.99;100.00;52545.94;5028919;28;20025;-76
2023/01/26 11:14:10;;;;;;;;;;;;;;;-144.99;100.00;52521.47;5034483;28;19971;-77
2023/01/26 11:16:37;;;;;;;;;;;;;;;-144.99;100.00;52533.69;5031018;28;19983;-77
2023/01/26 11:19:07;;;;;;;;;;;;;;;-144.99;100.00;52533.69;5041226;28;20036;-76
2023/01/26 11:21:37;;;;;;;;;;;;;;;-144.99;100.00;52543.91;5041689;28;19933;-80
2023/01/26 11:24:09;;;;;;;;;;;;;;;-144.99;100.00;52521.47;5037518;28;19925;-77
2023/01/26 11:26:48;;;;;;;;;;;;;;;-144.99;100.00;52523.50;5032367;28;19968;-76
2023/01/26 11:29:28;;;;;;;;;;;;;;;-144.99;100.00;52521.47;5042536;28;19979;-80
2023/01/26 11:31:59;;;;;;;;;;;;;;;-144.99;100.00;52570.38;5050792;28;20236;-74
2023/01/26 11:34:29;;;;;;;;;;;;;;;-144.99;100.00;52545.94;5051889;28;20016;-79
2023/01/26 11:37:05;;;;;;;;;;;;;;;-144.99;100.00;52552.03;5032699;28;20103;-76
2023/01/26 11:39:37;;;;;;;;;;;;;;;-144.99;100.00;52529.63;5035312;28;19987;-76
2023/01/26 11:42:10;;;;;;;;;;;;;;;-144.99;100.00;52497.00;5035960;28;19976;-77
2023/01/26 11:44:49;;;;;;;;;;;;;;;-144.99;100.00;52550.00;5030772;28;19964;-76
2023/01/26 11:47:25;;;;;;;;;;;;;;;-144.99;100.00;52484.78;5034816;28;19937;-76
2023/01/26 11:50:05;;;;;;;;;;;;;;;-144.99;100.00;52554.09;5028077;28;19929;-76
2023/01/26 11:52:35;;;;;;;;;;;;;;;-144.99;100.00;52554.09;5026924;28;19931;-75
2023/01/26 11:55:18;;;;;;;;;;;;;;;-144.99;100.00;52545.94;5033864;28;19963;-76
2023/01/26 11:57:48;;;;;;;;;;;;;;;-144.99;100.00;52554.09;5036642;28;19975;-77
2023/01/26 12:00:16;;;;;;;;;;;;;;;-144.99;100.00;52541.84;5029879;28;20381;-75
2023/01/26 12:02:45;;;;;;;;;;;;;;;-144.99;100.00;52562.25;5037362;28;20298;-79
2023/01/26 12:05:14;;;;;;;;;;;;;;;-144.99;100.00;52513.31;5052362;28;19921;-75
2023/01/26 12:07:53;;;;;;;;;;;;;;;-144.99;100.00;52488.84;5037234;28;19925;-75
2023/01/26 12:10:24;;;;;;;;;;;;;;;-144.99;100.00;52497.00;5036257;28;19932;-76
2023/01/26 12:12:53;;;;;;;;;;;;;;;-144.99;100.00;52566.31;5038315;28;19925;-76
2023/01/26 12:15:23;;;;;;;;;;;;;;;-144.99;100.00;52521.47;5027716;28;19925;-76
2023/01/26 12:17:56;;;;;;;;;;;;;;;-144.99;100.00;52539.81;5023273;28;19925;-76
2023/01/26 12:20:26;;;;;;;;;;;;;;;-144.99;100.00;52513.31;5035616;28;20019;-76
2023/01/26 12:22:55;;;;;;;;;;;;;;;-144.99;100.00;52537.78;5036233;28;19925;-74
2023/01/26 12:25:29;;;;;;;;;;;;;;;-144.99;100.00;52554.09;5024389;28;19976;-75
2023/01/26 12:27:58;;;;;;;;;;;;;;;-144.99;100.00;52533.69;5033911;28;19925;-74
2023/01/26 12:30:29;;;;;;;;;;;;;;;-144.99;100.00;52499.06;5033287;28;19959;-75
2023/01/26 12:32:56;;;;;;;;;;;;;;;-144.99;100.00;52501.09;5030315;28;19979;-76
2023/01/26 12:35:31;;;;;;;;;;;;;;;-144.99;100.00;52556.13;5026267;28;19929;-75
2023/01/26 12:38:03;;;;;;;;;;;;;;;-144.99;100.00;52509.25;5049617;28;19937;-84
2023/01/26 12:40:36;;;;;;;;;;;;;;;-144.99;100.00;52533.69;5043970;28;19925;-74
2023/01/26 12:43:14;;;;;;;;;;;;;;;-144.99;100.00;52578.53;5041398;28;20010;-75
2023/01/26 12:45:42;;;;;;;;;;;;;;;-144.99;100.00;52490.91;5040205;28;20014;-76
2023/01/26 12:48:14;;;;;;;;;;;;;;;-144.99;100.00;52554.09;5028176;28;19968;-75
2023/01/26 12:50:44;;;;;;;;;;;;;;;-144.99;100.00;52515.34;5033117;28;19925;-75
2023/01/26 12:53:13;;;;;;;;;;;;;;;-144.99;100.00;52531.66;5029611;28;20149;-76
2023/01/26 12:55:44;;;;;;;;;;;;;;;-144.99;100.00;52550.00;5036215;28;19969;-80
2023/01/26 12:58:12;;;;;;;;;;;;;;;-144.99;100.00;52521.47;5033636;28;19937;-74
2023/01/26 13:00:40;;;;;;;;;;;;;;;-144.99;100.00;52517.41;5029195;28;19925;-75
2023/01/26 13:03:14;;;;;;;;;;;;;;;-144.99;100.00;52507.19;5031990;28;19925;-76
2023/01/26 13:05:55;;;;;;;;;;;;;;;-144.99;100.00;52501.09;5025308;28;19961;-74
2023/01/26 13:08:47;;;;;;;;;;;;;;;-144.99;100.00;52550.00;5028750;28;20055;-79
2023/01/26 13:11:35;;;;;;;;;;;;;;;-144.99;100.00;52517.41;5030063;28;19936;-77